Time;durP1;ratioP1;P1;durP2;ratioP2;P2;SDS_P1;SDS_P2;PMS_P1;PMS_P2;Temp;Humidity;BMP_temperature;BMP_pressure;BME280_temperature;BME280_humidity;BME280_pressure;Samples;Min_cycle;Max_cycle;Signal;HPM_P1;HPM_P2
2021/12/21 05:00:22;;;;;;;18.90;7.10;;;-1.30;99.90;;;;;;6011005;23;20405;-74
2021/12/21 05:02:49;;;;;;;9.07;5.80;;;-1.40;99.90;;;;;;4956595;29;20548;-74
2021/12/21 05:05:16;;;;;;;9.17;5.40;;;-1.50;99.90;;;;;;4956504;28;20543;-74
2021/12/21 05:07:47;;;;;;;10.87;6.03;;;-1.50;99.90;;;;;;4956329;28;20466;-74
2021/12/21 05:10:14;;;;;;;14.03;5.73;;;-1.60;99.90;;;;;;4955608;28;20457;-74
2021/12/21 05:12:41;;;;;;;9.57;6.03;;;-1.50;99.90;;;;;;4936960;29;20465;-74
2021/12/21 05:15:09;;;;;;;10.07;5.83;;;-1.60;99.90;;;;;;4937552;29;20545;-73
2021/12/21 05:17:37;;;;;;;12.80;7.20;;;-1.60;99.90;;;;;;4936504;29;20521;-73
2021/12/21 05:20:05;;;;;;;13.77;5.97;;;-1.50;99.90;;;;;;4936817;29;20485;-73
2021/12/21 05:22:32;;;;;;;10.27;6.33;;;-1.60;99.90;;;;;;4936879;29;20469;-74
2021/12/21 05:24:58;;;;;;;10.50;5.73;;;-1.50;99.90;;;;;;4936711;29;21040;-73
2021/12/21 05:27:25;;;;;;;12.27;7.20;;;-1.50;99.90;;;;;;4936694;29;20582;-73
2021/12/21 05:29:52;;;;;;;12.80;6.20;;;-1.50;99.90;;;;;;4936357;29;20540;-73
2021/12/21 05:32:19;;;;;;;9.87;6.10;;;-1.50;99.90;;;;;;4936858;29;20477;-73
2021/12/21 05:34:47;;;;;;;17.80;7.17;;;-1.50;99.90;;;;;;4936908;29;20548;-73
2021/12/21 05:37:14;;;;;;;12.63;6.77;;;-1.50;99.90;;;;;;4936769;29;20521;-73
2021/12/21 05:39:53;;;;;;;12.60;6.40;;;-1.50;99.90;;;;;;4936677;29;20463;-73
2021/12/21 05:42:20;;;;;;;9.60;6.10;;;-1.50;99.90;;;;;;4936533;29;20474;-73
2021/12/21 05:44:47;;;;;;;8.70;5.90;;;-1.50;99.90;;;;;;4936346;29;20462;-73
2021/12/21 05:47:14;;;;;;;24.50;8.10;;;-1.50;99.90;;;;;;4936215;29;21096;-72
2021/12/21 05:49:41;;;;;;;8.93;6.10;;;-1.50;99.90;;;;;;4936298;29;20537;-73
2021/12/21 05:52:10;;;;;;;13.33;6.60;;;-1.50;99.90;;;;;;4936514;29;20552;-73
2021/12/21 05:54:36;;;;;;;11.93;7.30;;;-1.60;99.90;;;;;;4936045;29;20504;-73
2021/12/21 05:57:04;;;;;;;9.30;6.23;;;-1.60;99.90;;;;;;4935786;29;20536;-73
2021/12/21 05:59:31;;;;;;;12.30;7.10;;;-1.60;99.90;;;;;;4936361;29;20454;-73
2021/12/21 06:01:58;;;;;;;9.67;5.90;;;-1.60;99.90;;;;;;4936102;29;20492;-73
2021/12/21 06:04:25;;;;;;;12.03;6.30;;;-1.70;99.90;;;;;;4936442;29;20536;-72
2021/12/21 06:06:53;;;;;;;8.87;6.03;;;-1.70;99.90;;;;;;4935747;29;20528;-73
2021/12/21 06:09:21;;;;;;;15.37;5.90;;;-1.70;99.90;;;;;;4935451;29;20450;-72
2021/12/21 06:11:58;;;;;;;9.93;6.07;;;-1.70;99.90;;;;;;4936143;29;20512;-74
2021/12/21 06:14:53;;;;;;;10.23;6.13;;;-1.70;99.90;;;;;;4936035;29;20445;-75
2021/12/21 06:23:06;;;;;;;12.77;6.63;;;-1.80;99.90;;;-143.14;100.00;56521.75;4932408;29;20449;-72
2021/12/21 06:25:41;;;;;;;11.20;6.50;;;-1.80;99.90;;;-143.14;100.00;56521.75;4930533;29;20446;-73
2021/12/21 06:28:14;;;;;;;12.73;5.90;;;-1.80;99.90;;;-143.14;100.00;56521.75;4935833;29;20529;-73
2021/12/21 06:30:42;;;;;;;12.00;6.00;;;-1.80;99.90;;;-143.14;100.00;56521.75;4935561;29;20565;-73
2021/12/21 06:33:10;;;;;;;7.87;5.43;;;-1.80;99.90;;;-143.14;100.00;56521.75;4935964;29;20533;-72
2021/12/21 06:35:39;;;;;;;15.60;6.53;;;-1.80;99.90;;;-143.14;100.00;56521.75;4935497;29;20536;-73
2021/12/21 06:38:07;;;;;;;9.97;6.80;;;-1.70;99.90;;;-143.14;100.00;56521.75;4935361;29;21002;-71
2021/12/21 06:40:36;;;;;;;12.40;6.90;;;-1.80;99.90;;;-143.14;100.00;56521.75;4934962;29;20561;-71
2021/12/21 06:43:05;;;;;;;7.93;5.93;;;-1.70;99.90;;;-143.14;100.00;56521.75;4935101;29;20533;-71
2021/12/21 06:45:45;;;;;;;13.27;6.87;;;-1.70;99.90;;;-143.14;100.00;56521.75;4935619;29;20772;-71
2021/12/21 06:51:16;;;;;;;14.73;6.50;;;-1.70;99.90;;;-143.14;100.00;56521.75;4934713;29;20965;-68
2021/12/21 06:53:48;;;;;;;8.17;6.30;;;-1.70;99.90;;;-143.14;100.00;56521.75;4935226;29;20442;-72
2021/12/21 06:56:18;;;;;;;11.80;7.53;;;-1.70;99.90;;;-143.14;100.00;56521.75;4935603;29;20517;-72
2021/12/21 06:58:46;;;;;;;16.33;7.20;;;-1.80;99.90;;;-143.14;100.00;56521.75;4935549;29;20644;-73
2021/12/21 07:01:14;;;;;;;8.17;6.60;;;-1.80;99.90;;;-143.14;100.00;56521.75;4935174;29;20584;-73
2021/12/21 07:03:42;;;;;;;9.23;6.30;;;-1.70;99.90;;;;;;4935242;29;20453;-74
2021/12/21 07:06:10;;;;;;;11.77;7.43;;;-1.70;99.90;;;;;;4935286;29;20456;-73
2021/12/21 07:08:46;;;;;;;12.73;7.43;;;-1.70;99.90;;;;;;4935049;29;20565;-72
2021/12/21 07:11:20;;;;;;;10.47;7.33;;;-1.70;99.90;;;;;;4934874;29;20488;-74
2021/12/21 07:19:19;;;;;;;14.47;6.57;;;-1.70;99.90;;;;;;4934948;29;20941;-73
2021/12/21 07:21:45;;;;;;;14.23;6.83;;;-1.60;99.90;;;;;;4935029;29;20569;-72
2021/12/21 07:24:12;;;;;;;9.13;6.77;;;-1.60;99.90;;;;;;4934688;29;20544;-72
2021/12/21 07:26:39;;;;;;;13.30;7.83;;;-1.60;99.90;;;;;;4935106;29;20497;-73
2021/12/21 07:29:07;;;;;;;12.30;7.00;;;-1.60;99.90;;;;;;4934548;29;20553;-73
2021/12/21 07:31:34;;;;;;;11.23;7.80;;;-1.60;99.90;;;;;;4934676;29;20564;-73
2021/12/21 07:34:02;;;;;;;13.90;8.27;;;-1.60;99.90;;;;;;4934852;29;20540;-73
2021/12/21 07:36:31;;;;;;;17.20;9.00;;;-1.50;99.90;;;;;;4934593;29;20529;-72
2021/12/21 07:38:59;;;;;;;12.97;8.27;;;-1.50;99.90;;;-143.14;100.00;56521.75;4934131;29;20950;-71
2021/12/21 07:41:26;;;;;;;14.40;8.97;;;-1.50;99.90;;;;;;4934778;29;20560;-72
2021/12/21 07:43:53;;;;;;;11.37;7.90;;;-1.50;99.90;;;;;;4934948;29;20460;-72
2021/12/21 07:46:22;;;;;;;10.93;7.30;;;-1.50;99.90;;;;;;4934623;29;20458;-72
2021/12/21 07:48:49;;;;;;;15.90;7.70;;;-1.50;99.90;;;;;;4934566;29;20532;-73
2021/12/21 07:51:16;;;;;;;21.17;7.90;;;-1.50;99.90;;;;;;4934572;29;20505;-72
2021/12/21 07:53:43;;;;;;;13.00;8.73;;;-1.50;99.90;;;;;;4934479;29;20505;-73
2021/12/21 07:56:11;;;;;;;16.37;8.80;;;-1.50;99.90;;;;;;4934339;29;21021;-72
2021/12/21 07:58:38;;;;;;;15.37;9.00;;;-1.50;99.90;;;;;;4934508;29;20493;-73
2021/12/21 08:01:06;;;;;;;11.67;8.73;;;-1.50;99.90;;;;;;4934161;29;20524;-73
2021/12/21 08:03:35;;;;;;;19.83;9.80;;;-1.50;99.90;;;;;;4934929;29;20497;-72
2021/12/21 08:06:04;;;;;;;18.03;9.40;;;-1.40;99.90;;;;;;4934822;29;20549;-72
2021/12/21 08:08:31;;;;;;;22.07;10.03;;;-1.40;99.90;;;;;;4934833;29;20492;-72
2021/12/21 08:11:12;;;;;;;14.07;9.43;;;-1.40;99.90;;;;;;4934274;29;20471;-73
2021/12/21 08:13:41;;;;;;;14.13;8.10;;;-1.40;99.90;;;;;;4934749;29;20452;-72
2021/12/21 08:16:09;;;;;;;12.20;8.13;;;-1.40;99.90;;;;;;4934419;29;20458;-72
2021/12/21 08:18:37;;;;;;;14.20;7.87;;;-1.40;99.90;;;;;;4934120;29;20949;-72
2021/12/21 08:21:04;;;;;;;12.50;8.53;;;-1.40;99.90;;;;;;4934538;29;20577;-72
2021/12/21 08:23:32;;;;;;;14.57;8.10;;;-1.30;99.90;;;;;;4934675;29;20545;-73
2021/12/21 08:25:59;;;;;;;15.37;8.60;;;-1.30;99.90;;;;;;4937480;29;20529;-72
2021/12/21 08:28:26;;;;;;;16.20;8.03;;;-1.30;99.90;;;;;;4938107;29;20457;-73
2021/12/21 08:30:53;;;;;;;11.67;8.27;;;-1.20;99.90;;;;;;4937522;29;20993;-72
2021/12/21 08:33:20;;;;;;;13.00;7.60;;;-1.30;99.90;;;;;;4937681;29;20525;-72
2021/12/21 08:35:48;;;;;;;15.80;8.20;;;-1.30;99.90;;;;;;4937927;29;20481;-72
2021/12/21 08:38:17;;;;;;;13.17;8.03;;;-1.30;99.90;;;;;;4937754;29;20584;-72
2021/12/21 08:40:49;;;;;;;15.87;8.03;;;-1.20;99.90;;;;;;4937434;29;20898;-72
2021/12/21 08:43:18;;;;;;;13.47;8.03;;;-1.20;99.90;;;;;;4938003;29;20497;-73
2021/12/21 08:45:47;;;;;;;12.03;8.00;;;-1.10;99.90;;;;;;4937779;29;20532;-72
2021/12/21 08:48:15;;;;;;;13.13;7.93;;;-1.10;99.90;;;;;;4937475;29;20449;-72
2021/12/21 08:50:44;;;;;;;11.30;7.30;;;-1.00;99.90;;;;;;4937492;29;20524;-73
2021/12/21 08:53:13;;;;;;;15.03;8.60;;;-0.80;99.90;;;;;;4937456;29;21135;-72
2021/12/21 08:55:40;;;;;;;22.30;8.00;;;-0.70;99.90;;;;;;4937404;29;21033;-73
2021/12/21 08:58:08;;;;;;;16.13;9.63;;;-0.60;99.90;;;;;;4937187;29;20861;-72
2021/12/21 09:00:35;;;;;;;17.43;10.57;;;-0.50;99.90;;;;;;4937225;29;20572;-72
2021/12/21 09:03:02;;;;;;;19.83;10.77;;;-0.40;99.90;;;;;;4937594;29;20450;-72
2021/12/21 09:05:31;;;;;;;21.87;11.80;;;-0.30;99.90;;;;;;4937196;29;20457;-73
2021/12/21 09:08:00;;;;;;;14.00;7.93;;;-0.20;99.90;;;;;;4937448;29;20541;-72
2021/12/21 09:10:29;;;;;;;13.37;9.27;;;-0.20;99.90;;;;;;4936919;29;20474;-73
2021/12/21 09:12:58;;;;;;;11.20;7.00;;;-0.10;99.90;;;;;;4937016;29;20473;-72
2021/12/21 09:15:27;;;;;;;13.00;6.67;;;0.00;99.90;;;;;;4937371;29;20457;-73
2021/12/21 09:17:54;;;;;;;15.47;7.30;;;0.10;99.90;;;;;;4937272;29;20544;-73
2021/12/21 09:20:23;;;;;;;11.90;5.70;;;0.20;99.90;;;;;;4936725;29;20461;-72
2021/12/21 09:22:51;;;;;;;19.37;6.93;;;0.20;99.90;;;;;;4936893;29;20529;-73
2021/12/21 09:25:19;;;;;;;7.47;5.30;;;0.30;99.90;;;;;;4937077;29;20493;-73
2021/12/21 09:27:48;;;;;;;11.10;6.33;;;0.40;99.90;;;;;;4937114;29;20484;-73
2021/12/21 09:30:18;;;;;;;15.13;6.30;;;0.40;99.90;;;;;;4936373;29;20947;-69
2021/12/21 09:32:44;;;;;;;8.57;6.20;;;0.50;99.90;;;;;;4936802;29;20541;-69
2021/12/21 09:35:12;;;;;;;7.30;5.70;;;0.60;99.90;;;;;;4936359;29;20536;-69
2021/12/21 09:37:40;;;;;;;8.20;5.63;;;0.70;99.90;;;;;;4936323;29;21020;-73
2021/12/21 09:40:09;;;;;;;12.23;6.37;;;0.80;99.90;;;;;;4936235;29;20548;-73
2021/12/21 09:42:37;;;;;;;7.30;5.03;;;0.90;99.90;;;;;;4936553;29;20557;-73
2021/12/21 09:45:06;;;;;;;9.50;5.87;;;1.10;99.90;;;;;;4936591;29;20545;-73
2021/12/21 09:47:33;;;;;;;8.73;5.57;;;1.20;99.90;;;;;;4936430;29;20485;-73
2021/12/21 09:50:00;;;;;;;7.50;6.07;;;1.30;99.90;;;;;;4936152;29;20528;-73
2021/12/21 09:52:29;;;;;;;6.33;5.10;;;1.40;99.90;;;;;;4935995;29;20482;-73
2021/12/21 09:54:57;;;;;;;8.50;6.30;;;1.50;99.90;;;;;;4936228;29;20457;-73
2021/12/21 09:57:24;;;;;;;11.57;5.77;;;1.60;99.90;;;;;;4936261;29;20644;-72
2021/12/21 09:59:51;;;;;;;9.40;5.23;;;1.70;99.90;;;;;;4936276;29;20460;-72
2021/12/21 10:02:22;;;;;;;11.07;5.37;;;1.80;99.90;;;;;;4935950;29;20572;-73
2021/12/21 10:04:51;;;;;;;9.10;5.73;;;1.90;99.90;;;;;;4936042;29;20454;-71
2021/12/21 10:07:19;;;;;;;8.20;4.93;;;2.00;99.90;;;;;;4936120;29;20480;-69
2021/12/21 10:09:47;;;;;;;18.60;5.53;;;2.10;99.90;;;;;;4935755;29;20464;-69
2021/12/21 10:12:15;;;;;;;5.80;5.17;;;2.20;99.90;;;;;;4935446;29;20524;-69
2021/12/21 10:14:42;;;;;;;9.20;5.70;;;2.30;99.90;;;;;;4934981;29;20458;-73
2021/12/21 10:17:11;;;;;;;9.27;5.57;;;2.50;99.90;;;;;;4935590;29;21037;-73
2021/12/21 10:19:46;;;;;;;9.13;5.40;;;2.60;99.90;;;;;;4935303;29;20473;-73
2021/12/21 10:22:16;;;;;;;9.37;6.00;;;2.70;99.90;;;;;;4935685;29;20481;-73
2021/12/21 10:24:49;;;;;;;5.93;4.90;;;2.70;99.90;;;;;;4935697;29;20950;-73
2021/12/21 10:27:19;;;;;;;9.33;7.03;;;2.80;99.90;;;;;;4935659;29;20468;-73
2021/12/21 10:29:47;;;;;;;10.27;6.80;;;2.90;99.90;;;;;;4935416;29;20469;-73
2021/12/21 10:32:20;;;;;;;9.87;6.30;;;2.90;99.90;;;;;;4935476;29;20485;-76
2021/12/21 10:34:54;;;;;;;16.57;7.60;;;2.90;99.90;;;;;;4934375;29;20545;-73
2021/12/21 10:37:25;;;;;;;9.83;7.30;;;2.90;99.90;;;;;;4933875;29;20601;-74
2021/12/21 10:40:16;;;;;;;12.23;6.60;;;2.90;99.90;;;;;;4934083;29;20989;-72
2021/12/21 10:42:51;;;;;;;8.20;5.30;;;3.00;99.90;;;;;;4933798;29;20458;-74
2021/12/21 10:45:24;;;;;;;9.70;5.30;;;3.10;99.90;;;;;;4934470;29;20536;-74
2021/12/21 10:47:52;;;;;;;10.70;5.30;;;3.20;99.90;;;;;;4933585;29;21041;-74
2021/12/21 10:50:21;;;;;;;9.40;6.00;;;3.30;99.90;;;;;;4934854;29;20888;-73
2021/12/21 10:52:52;;;;;;;5.13;3.87;;;3.40;99.90;;;;;;4935094;29;21017;-73
2021/12/21 10:55:31;;;;;;;9.10;4.70;;;3.60;99.90;;;;;;4935190;29;20537;-74
2021/12/21 10:58:06;;;;;;;8.43;4.00;;;3.70;99.90;;;;;;4935354;29;20584;-74
2021/12/21 11:00:33;;;;;;;7.90;3.70;;;3.80;99.90;;;;;;4935006;29;20513;-74
2021/12/21 11:03:00;;;;;;;5.63;4.33;;;3.90;99.90;;;;;;4935360;29;20481;-74
2021/12/21 11:05:30;;;;;;;6.50;4.13;;;4.10;99.90;;;;;;4926318;29;20455;-74
2021/12/21 11:08:02;;;;;;;7.27;4.30;;;4.30;99.90;;;;;;4924907;29;20485;-74
2021/12/21 11:10:34;;;;;;;10.27;4.20;;;4.50;99.90;;;;;;4923848;29;20458;-74
2021/12/21 11:13:03;;;;;;;7.30;4.13;;;4.50;99.90;;;;;;4932249;29;20536;-74
2021/12/21 11:15:33;;;;;;;5.43;3.70;;;4.70;99.90;;;;;;4958602;23;20518;-71
2021/12/21 11:18:02;;;;;;;9.87;3.90;;;4.70;99.90;;;;;;4972745;28;21102;-72
2021/12/21 11:20:31;;;;;;;5.60;4.43;;;5.00;99.90;;;;;;4973143;28;20452;-72
2021/12/21 11:22:58;;;;;;;5.80;4.47;;;5.10;99.90;;;;;;4973288;28;20491;-72
2021/12/21 11:25:25;;;;;;;6.57;3.70;;;5.10;99.90;;;;;;4968078;28;20564;-72
2021/12/21 11:27:53;;;;;;;7.10;3.40;;;5.30;99.90;;;;;;4953845;29;20539;-72
2021/12/21 11:30:23;;;;;;;5.70;3.13;;;5.30;99.90;;;;;;4953447;28;20481;-72
2021/12/21 11:32:52;;;;;;;7.53;3.57;;;5.40;99.90;;;;;;4954049;29;20508;-72
2021/12/21 11:38:22;;;;;;;4.83;4.13;;;5.50;99.90;;;;;;4931066;29;20481;-73
2021/12/21 11:40:50;;;;;;;4.80;3.40;;;5.40;99.90;;;;;;4930656;29;20969;-73
2021/12/21 11:43:27;;;;;;;5.23;3.93;;;5.50;99.90;;;;;;4929036;29;21030;-73
2021/12/21 11:45:57;;;;;;;13.53;4.30;;;5.50;99.90;;;;;;4933884;29;20557;-73
2021/12/21 11:48:33;;;;;;;5.17;4.10;;;5.60;99.90;;;;;;4933837;29;20473;-75
2021/12/21 11:51:08;;;;;;;9.50;3.30;;;5.60;99.90;;;;;;4933381;29;20532;-72
2021/12/21 11:53:36;;;;;;;3.70;3.10;;;5.60;99.90;;;;;;4934030;29;20457;-73
2021/12/21 11:56:05;;;;;;;4.93;3.60;;;5.50;99.90;;;;;;4933973;29;20560;-74
2021/12/21 11:58:38;;;;;;;8.60;3.50;;;5.50;99.90;;;;;;4934680;29;20515;-74
2021/12/21 12:01:08;;;;;;;4.00;3.20;;;5.60;99.90;;;;;;4937391;29;20500;-74
2021/12/21 12:03:38;;;;;;;4.23;3.00;;;5.70;99.90;;;;;;4937355;29;20540;-75
2021/12/21 12:06:07;;;;;;;6.43;3.40;;;5.70;99.90;;;;;;4937747;29;20815;-73
2021/12/21 12:08:54;;;;;;;5.60;3.10;;;5.70;99.90;;;;;;4937519;29;20540;-73
2021/12/21 12:11:27;;;;;;;3.77;3.30;;;5.70;99.90;;;;;;4937919;29;20834;-73
2021/12/21 12:14:05;;;;;;;6.33;3.73;;;5.80;99.90;;;;;;4937354;29;20541;-72
2021/12/21 12:16:42;;;;;;;4.00;3.53;;;5.80;99.90;;;;;;4937313;29;20488;-72
2021/12/21 12:19:14;;;;;;;3.43;3.00;;;5.80;99.90;;;;;;4938136;29;20603;-73
2021/12/21 12:21:54;;;;;;;6.90;3.60;;;5.80;99.90;;;;;;4937800;29;21024;-73
2021/12/21 12:24:24;;;;;;;4.40;2.80;;;5.80;99.90;;;;;;4938144;29;20992;-74
2021/12/21 12:27:01;;;;;;;6.03;3.27;;;5.80;99.90;;;;;;4942173;29;21037;-74
2021/12/21 12:29:32;;;;;;;5.47;3.00;;;5.80;99.90;;;;;;4945520;29;20448;-73
2021/12/21 12:32:05;;;;;;;13.67;3.50;;;5.80;99.90;;;;;;4943457;29;20973;-73
2021/12/21 12:34:36;;;;;;;5.57;3.60;;;5.80;99.90;;;;;;4938201;29;20488;-73
2021/12/21 12:37:16;;;;;;;7.30;4.03;;;5.70;99.90;;;;;;4937465;29;20484;-73
2021/12/21 12:39:48;;;;;;;11.00;3.33;;;5.60;99.90;;;;;;4937688;29;20500;-73
2021/12/21 12:42:20;;;;;;;3.90;3.50;;;5.70;99.90;;;;;;4937753;29;20561;-73
2021/12/21 12:44:49;;;;;;;4.50;3.57;;;5.60;99.90;;;;;;4937770;29;20496;-73
2021/12/21 12:47:17;;;;;;;3.90;3.60;;;5.60;99.90;;;;;;4937518;29;20469;-74
2021/12/21 12:49:51;;;;;;;5.50;3.77;;;5.60;99.90;;;;;;4937241;29;20824;-74
2021/12/21 12:52:20;;;;;;;6.77;3.83;;;5.60;99.90;;;;;;4937656;29;20464;-73
2021/12/21 12:54:51;;;;;;;6.27;3.70;;;5.60;99.90;;;;;;4937588;29;20458;-71
2021/12/21 12:57:31;;;;;;;4.90;3.30;;;5.60;99.90;;;;;;4937588;29;20481;-73
2021/12/21 13:00:08;;;;;;;5.50;3.30;;;5.50;99.90;;;;;;4936915;29;20600;-71
2021/12/21 13:02:35;;;;;;;5.80;3.43;;;5.50;99.90;;;;;;4937348;29;20464;-72
2021/12/21 13:05:07;;;;;;;4.43;3.70;;;5.40;99.90;;;;;;4937275;29;20450;-72
2021/12/21 13:07:34;;;;;;;5.20;3.90;;;5.40;99.90;;;;;;4937091;29;20451;-72
2021/12/21 13:10:09;;;;;;;4.20;3.80;;;5.30;99.90;;;;;;4935819;29;20454;-73
2021/12/21 13:12:36;;;;;;;7.53;3.70;;;5.20;99.90;;;;;;4936715;29;20496;-73
2021/12/21 13:15:05;;;;;;;5.00;3.60;;;5.20;99.90;;;;;;4936831;29;20476;-73
2021/12/21 13:17:33;;;;;;;9.37;4.80;;;5.20;99.90;;;;;;4937127;29;20458;-72
2021/12/21 13:20:00;;;;;;;3.87;3.47;;;5.20;99.90;;;;;;4936701;29;20588;-72
2021/12/21 13:22:28;;;;;;;4.87;3.50;;;5.20;99.90;;;;;;4936902;29;20496;-73
2021/12/21 13:24:55;;;;;;;6.40;4.03;;;5.10;99.90;;;;;;4936461;29;20548;-73
2021/12/21 13:27:25;;;;;;;6.00;3.50;;;5.00;99.90;;;;;;4936661;29;20519;-73
2021/12/21 13:29:53;;;;;;;6.80;3.40;;;5.00;99.90;;;;;;4936478;29;20826;-73
2021/12/21 13:32:22;;;;;;;5.73;3.67;;;5.00;99.90;;;;;;4936715;29;20454;-73
2021/12/21 13:34:54;;;;;;;5.00;3.27;;;5.00;99.90;;;;;;4936341;29;21001;-73
2021/12/21 13:37:22;;;;;;;4.13;3.73;;;5.00;99.90;;;;;;4936335;29;20464;-72
2021/12/21 13:39:53;;;;;;;3.93;3.47;;;5.00;99.90;;;;;;4936336;29;20504;-73
2021/12/21 13:42:21;;;;;;;3.80;3.50;;;5.00;99.90;;;;;;4936613;29;20454;-73
2021/12/21 13:44:53;;;;;;;3.83;3.53;;;5.00;99.90;;;;;;4936419;29;20832;-74
2021/12/21 13:47:24;;;;;;;5.67;3.50;;;5.00;99.90;;;;;;4936486;29;20465;-73
2021/12/21 13:50:03;;;;;;;5.27;3.63;;;4.90;99.90;;;;;;4935956;29;20453;-73
2021/12/21 13:52:32;;;;;;;4.67;3.90;;;4.90;99.90;;;;;;4936261;29;20509;-72
2021/12/21 13:54:59;;;;;;;6.13;3.97;;;4.90;99.90;;;;;;4936193;29;20528;-73
2021/12/21 13:57:28;;;;;;;5.30;4.20;;;4.80;99.90;;;;;;4936181;29;20545;-71
2021/12/21 13:59:59;;;;;;;5.47;4.27;;;4.70;99.90;;;;;;4935919;29;20723;-71
2021/12/21 14:02:33;;;;;;;7.53;4.97;;;4.70;99.90;;;;;;4935939;29;20548;-71
2021/12/21 14:05:03;;;;;;;5.77;4.70;;;4.60;99.90;;;;;;4936181;29;20460;-72
2021/12/21 14:07:36;;;;;;;5.87;4.80;;;4.70;99.90;;;;;;4936197;29;20852;-72
2021/12/21 14:10:09;;;;;;;5.63;4.10;;;4.60;99.90;;;;;;4936095;29;20927;-71
2021/12/21 14:12:36;;;;;;;4.83;3.90;;;4.60;99.90;;;;;;4935912;29;20552;-71
2021/12/21 14:15:06;;;;;;;3.37;3.07;;;4.50;99.90;;;;;;4935411;29;20556;-72
2021/12/21 14:17:33;;;;;;;4.63;3.63;;;4.60;99.90;;;;;;4935009;29;20454;-72
2021/12/21 14:20:04;;;;;;;4.37;3.37;;;4.50;99.90;;;;;;4935213;29;20493;-71
2021/12/21 14:22:32;;;;;;;7.23;3.97;;;4.50;99.90;;;;;;4934968;29;20545;-71
2021/12/21 14:24:59;;;;;;;7.17;4.27;;;4.40;99.90;;;;;;4935419;29;20509;-71
2021/12/21 14:27:28;;;;;;;5.77;3.73;;;4.30;99.90;;;;;;4935337;29;20905;-73
2021/12/21 14:30:08;;;;;;;6.07;3.97;;;4.30;99.90;;;;;;4935649;29;20545;-71
2021/12/21 14:33:06;;;;;;;5.33;3.37;;;4.20;99.90;;;;;;4935667;29;20460;-71
2021/12/21 14:35:38;;;;;;;7.00;4.07;;;4.20;99.90;;;;;;4935374;29;20488;-71
2021/12/21 14:38:07;;;;;;;5.50;3.80;;;4.10;99.90;;;;;;4935407;29;20456;-70
2021/12/21 14:40:42;;;;;;;5.80;3.97;;;4.10;99.90;;;;;;4935338;29;20536;-69
2021/12/21 14:43:23;;;;;;;6.47;4.17;;;4.10;99.90;;;;;;4935337;29;20485;-71
2021/12/21 14:45:52;;;;;;;7.77;4.60;;;4.20;99.90;;;;;;4935213;29;20477;-70
2021/12/21 14:48:21;;;;;;;5.90;3.93;;;4.10;99.90;;;;;;4935091;29;20540;-70
2021/12/21 14:50:53;;;;;;;5.47;4.00;;;4.10;99.90;;;;;;4935240;29;20449;-70
2021/12/21 14:53:28;;;;;;;5.23;4.10;;;4.10;99.90;;;;;;4935153;29;20946;-71
2021/12/21 14:55:55;;;;;;;4.80;4.40;;;4.10;99.90;;;;;;4935179;29;20876;-73
2021/12/21 14:58:22;;;;;;;6.60;5.00;;;4.10;99.90;;;;;;4934987;29;20462;-70
2021/12/21 15:00:54;;;;;;;6.20;5.07;;;4.10;99.90;;;;;;4934632;29;20450;-70
2021/12/21 15:03:22;;;;;;;9.60;6.77;;;4.10;99.90;;;;;;4934852;29;20545;-71
2021/12/21 15:05:50;;;;;;;10.90;7.70;;;4.20;99.90;;;;;;4934817;29;20477;-71
2021/12/21 15:08:21;;;;;;;16.43;8.50;;;4.10;99.90;;;;;;4935078;29;20549;-71
2021/12/21 15:10:49;;;;;;;8.53;5.60;;;4.10;99.90;;;;;;4935222;29;20454;-74
2021/12/21 15:13:18;;;;;;;8.40;5.00;;;4.10;99.90;;;;;;4934576;29;20920;-71
2021/12/21 15:15:46;;;;;;;7.67;5.53;;;4.00;99.90;;;;;;4934807;29;20521;-71
2021/12/21 15:18:14;;;;;;;10.47;5.37;;;4.00;99.90;;;;;;4934711;29;20490;-71
2021/12/21 15:20:41;;;;;;;7.00;5.37;;;3.90;99.90;;;;;;4934574;29;20584;-71
2021/12/21 15:23:09;;;;;;;7.20;4.40;;;3.90;99.90;;;;;;4934589;29;20465;-71
2021/12/21 15:25:37;;;;;;;5.73;4.30;;;3.90;99.90;;;;;;4934504;29;20565;-71
2021/12/21 15:28:05;;;;;;;9.77;4.67;;;3.80;99.90;;;;;;4934610;29;20442;-71
2021/12/21 15:30:33;;;;;;;8.53;4.83;;;3.80;99.90;;;;;;4934616;29;20521;-71
2021/12/21 15:33:01;;;;;;;8.10;6.00;;;3.70;99.90;;;;;;4934301;29;20947;-71
2021/12/21 15:35:33;;;;;;;6.90;4.87;;;3.60;99.90;;;;;;4934665;29;20891;-71
2021/12/21 15:38:00;;;;;;;4.13;3.60;;;3.60;99.90;;;;;;4934683;29;20512;-71
2021/12/21 15:40:27;;;;;;;8.60;4.63;;;3.60;99.90;;;;;;4933998;29;20596;-73
2021/12/21 15:42:55;;;;;;;7.97;4.93;;;3.50;99.90;;;;;;4934568;29;20492;-71
2021/12/21 15:45:23;;;;;;;10.57;5.70;;;3.50;99.90;;;;;;4934604;29;20536;-71
2021/12/21 15:47:51;;;;;;;15.77;7.00;;;3.40;99.90;;;;;;4934494;29;20807;-71
2021/12/21 15:50:18;;;;;;;9.63;5.73;;;3.40;99.90;;;;;;4934172;29;20824;-74
2021/12/21 15:52:47;;;;;;;7.13;5.20;;;3.30;99.90;;;;;;4934179;29;20549;-74
2021/12/21 15:55:16;;;;;;;5.20;4.70;;;3.30;99.90;;;;;;4934327;29;20561;-74
2021/12/21 15:57:44;;;;;;;7.67;4.17;;;3.30;99.90;;;;;;4934380;29;20468;-72
2021/12/21 16:00:13;;;;;;;10.90;4.80;;;3.20;99.90;;;;;;4934249;29;20497;-74
2021/12/21 16:02:39;;;;;;;7.47;5.27;;;3.10;99.90;;;;;;4934249;29;20541;-73
2021/12/21 16:05:08;;;;;;;6.23;4.80;;;3.10;99.90;;;;;;4934446;29;20545;-72
2021/12/21 16:07:35;;;;;;;7.40;5.70;;;3.00;99.90;;;;;;4934492;29;20489;-72
2021/12/21 16:10:05;;;;;;;5.47;4.90;;;2.90;99.90;;;;;;4934352;29;20528;-72
2021/12/21 16:12:32;;;;;;;13.63;5.23;;;2.90;99.90;;;;;;4934507;29;20537;-72
2021/12/21 16:14:58;;;;;;;5.77;4.23;;;2.90;99.90;;;;;;4934372;29;20477;-72
2021/12/21 16:17:25;;;;;;;15.03;5.70;;;2.80;99.90;;;;;;4934345;29;20544;-72
2021/12/21 16:19:52;;;;;;;9.87;5.90;;;2.80;99.90;;;;;;4933849;29;20532;-72
2021/12/21 16:22:19;;;;;;;8.87;6.10;;;2.80;99.90;;;;;;4934103;29;20894;-72
2021/12/21 16:24:46;;;;;;;9.97;6.17;;;2.80;99.90;;;;;;4934390;29;20559;-72
2021/12/21 16:27:16;;;;;;;13.27;7.07;;;2.70;99.90;;;;;;4934190;29;20556;-72
2021/12/21 16:29:43;;;;;;;12.60;6.63;;;2.70;99.90;;;;;;4934049;29;20513;-72
2021/12/21 16:32:10;;;;;;;10.60;6.97;;;2.70;99.90;;;;;;4934131;29;20450;-72
2021/12/21 16:34:37;;;;;;;11.53;6.60;;;2.70;99.90;;;;;;4933887;29;20553;-73
2021/12/21 16:37:05;;;;;;;9.60;6.50;;;2.60;99.90;;;;;;4934144;29;20477;-72
2021/12/21 16:39:33;;;;;;;10.40;6.57;;;2.60;99.90;;;;;;4934196;29;20576;-72
2021/12/21 16:42:01;;;;;;;8.43;7.53;;;2.60;99.90;;;;;;4934043;29;20528;-72
2021/12/21 16:44:29;;;;;;;11.03;6.47;;;2.50;99.90;;;;;;4934181;29;20489;-72
2021/12/21 16:46:57;;;;;;;9.13;7.20;;;2.50;99.90;;;;;;4936692;29;20469;-72
2021/12/21 16:49:24;;;;;;;16.97;8.83;;;2.40;99.90;;;;;;4937265;29;20532;-72
2021/12/21 16:51:51;;;;;;;21.83;11.30;;;2.40;99.90;;;;;;4937489;29;20833;-72
2021/12/21 16:54:18;;;;;;;15.57;9.20;;;2.30;99.90;;;;;;4937364;29;20485;-72
2021/12/21 16:56:45;;;;;;;15.83;9.07;;;2.30;99.90;;;;;;4937274;29;20908;-71
2021/12/21 16:59:12;;;;;;;16.60;9.57;;;2.30;99.90;;;;;;4937090;29;20829;-71
2021/12/21 17:01:41;;;;;;;14.03;8.50;;;2.20;99.90;;;;;;4937111;29;20681;-71
2021/12/21 17:04:09;;;;;;;14.37;7.57;;;2.20;99.90;;;;;;4937367;29;20536;-72
2021/12/21 17:06:36;;;;;;;10.33;8.57;;;2.10;99.90;;;;;;4937052;29;20837;-72
2021/12/21 17:09:04;;;;;;;11.33;7.30;;;2.00;99.90;;;;;;4936924;29;20532;-71
2021/12/21 17:11:31;;;;;;;11.97;6.90;;;1.90;99.90;;;;;;4936827;29;20456;-72
2021/12/21 17:13:58;;;;;;;9.03;7.47;;;1.90;99.90;;;;;;4936851;29;20928;-73
2021/12/21 17:16:27;;;;;;;8.10;6.23;;;1.90;99.90;;;;;;4937366;29;21045;-72
2021/12/21 17:18:56;;;;;;;10.60;7.30;;;1.90;99.90;;;;;;4936249;29;20462;-72
2021/12/21 17:21:24;;;;;;;11.43;7.27;;;1.90;99.90;;;;;;4937397;29;20584;-73
2021/12/21 17:23:51;;;;;;;10.13;6.80;;;1.80;99.90;;;;;;4937028;29;20513;-73
2021/12/21 17:26:18;;;;;;;10.90;8.90;;;1.80;99.90;;;;;;4937239;29;20473;-73
2021/12/21 17:28:46;;;;;;;21.37;11.43;;;1.80;99.90;;;;;;4937126;29;20457;-74
2021/12/21 17:31:13;;;;;;;17.43;10.80;;;1.80;99.90;;;;;;4937143;29;20533;-72
2021/12/21 17:33:40;;;;;;;19.30;11.00;;;1.70;99.90;;;;;;4936883;29;21014;-72
2021/12/21 17:36:12;;;;;;;20.20;11.87;;;1.70;99.90;;;;;;4936746;29;20509;-73
2021/12/21 17:38:41;;;;;;;24.47;13.93;;;1.70;99.90;;;;;;4936616;29;20465;-72
2021/12/21 17:41:08;;;;;;;44.67;25.27;;;1.70;99.90;;;;;;4936698;29;20493;-72
2021/12/21 17:43:35;;;;;;;29.47;18.37;;;1.60;99.90;;;;;;4936576;29;21044;-72
2021/12/21 17:46:02;;;;;;;30.80;19.83;;;1.60;99.90;;;;;;4936582;29;20570;-72
2021/12/21 17:48:29;;;;;;;28.63;19.03;;;1.60;99.90;;;;;;4936484;29;20544;-72
2021/12/21 17:50:57;;;;;;;24.33;14.57;;;1.60;99.90;;;;;;4936502;29;20541;-72
2021/12/21 17:53:25;;;;;;;14.53;9.67;;;1.50;99.90;;;;;;4936324;29;20485;-72
2021/12/21 17:55:52;;;;;;;11.10;8.37;;;1.50;99.90;;;;;;4936972;29;20480;-72
2021/12/21 17:58:20;;;;;;;12.43;8.00;;;1.40;99.90;;;;;;4945078;28;20535;-72
2021/12/21 18:00:47;;;;;;;13.45;8.52;;;1.40;99.90;;;;;;4935293;29;20918;-74
2021/12/21 18:03:14;;;;;;;12.43;8.40;;;1.40;99.90;;;;;;4936188;29;20283;-73
2021/12/21 18:05:40;;;;;;;16.07;10.50;;;1.50;99.90;;;;;;4935910;29;20561;-73